الصفحة الرئيسية
METAR-TAF:

METAR-TAF

مطار :

مطار واتاي الدولي

فيينتيان, لاوس

دائرة عرض: 17-57N, خط طول: 102-34E, ارتفاع: 171 متر

مراقبة الطقس الحالي

تاريخ ووقت الإصدار 12ساعات و 27 دقيقة قبل الساعة 05:00UTC
ريح 8 عقدة من الغرب
درجة الحرارة 31°درجة مئوية
الرطوبة 71%
ضغط 1004 hPa
الرؤية: 8000 متر
غيوم متفرقة على ارتفاع 1600 قدم
غيوم متفرقة على ارتفاع 4000 قدم

METAR: VLVT 210500Z 27008KT 8000 SCT016 SCT040 31/25 Q1004 NOSIG

زمن: 00:27 (17:27 UTC)

توقعات

تاريخ ووقت الإصدار 12ساعات و 27 دقيقة قبل الساعة 05:00UTC
التوقعات صالحة من21 الساعة 06 UTC إلى 22 الساعة 06 UTC
ريح 4 عقدة من الجنوب الغربي
الرؤية: 8000 متر
غيوم متفرقة على ارتفاع 1600 قدم
غيوم مفككة على ارتفاع 8300 قدم
مؤقت
من 21 الساعة 14 UTC إلى 21 الساعة 20 UTC
الرؤية: 4000 متر
غيوم متفرقة على ارتفاع 1000 قدم
غيوم مفككة على ارتفاع 8300 قدم
مطر خفيف

TAF: VLVT 210500Z 2106/2206 22004KT 8000 SCT016 BKN083 TEMPO 2114/2120 4000 -RA SCT010 BKN083

أرصاد الطقس والتوقعات من أكثر من 4000 مطار (تقارير الطقس للمطار METAR والتنبؤ بالطقس بالمطارTAF).

المحطات المتاحة هي النقط الصفراء والحمراء على الخريطة.

حرك المؤشر فوق النقطة لمعرفة اسم المحطة.

ثم انقر لمعرفة أرصاد وتوقعات الطقس.

لتغيير الخارطة: اضغط على الأزرار الخضراء مع رمز الصليب الأسود للتكبير. على الزر الأخضر مع شرطة للتصغير، أو على الأسهم الخضراء للخرائط المجاورة.


METAR-TAF: